createdAt,value
2018-12-21T00:00:10.112Z,52.13
2018-12-21T00:00:41.256Z,51.23
2018-12-21T00:01:12.368Z,50.43
2018-12-21T00:01:43.485Z,50.95
2018-12-21T00:02:14.597Z,51.08
2018-12-21T00:02:45.701Z,51.35
2018-12-21T00:03:16.801Z,49.85
2018-12-21T00:03:47.913Z,51.42
2018-12-21T00:04:19.040Z,52.95
2018-12-21T00:04:50.160Z,49.73
2018-12-21T00:05:21.270Z,50.65
2018-12-21T00:05:52.468Z,50.75
2018-12-21T00:06:23.591Z,51.90
2018-12-21T00:06:54.709Z,52.03
2018-12-21T00:07:25.818Z,51.98
2018-12-21T00:07:58.707Z,52.93
2018-12-21T00:08:30.058Z,51.37
2018-12-21T00:09:01.162Z,52.33
2018-12-21T00:09:32.260Z,49.93
2018-12-21T00:10:03.365Z,49.80
2018-12-21T00:10:34.463Z,49.48
2018-12-21T00:11:05.605Z,51.18
2018-12-21T00:11:36.718Z,50.75
2018-12-21T00:12:07.817Z,49.93
2018-12-21T00:12:38.967Z,50.30
2018-12-21T00:13:10.072Z,49.33
2018-12-21T00:13:41.175Z,49.08
2018-12-21T00:14:12.276Z,51.20
2018-12-21T00:14:43.415Z,48.90
2018-12-21T00:15:14.517Z,49.23
2018-12-21T00:15:45.638Z,49.50
2018-12-21T00:16:16.736Z,48.58
2018-12-21T00:16:47.840Z,49.03
2018-12-21T00:17:18.956Z,49.15
2018-12-21T00:17:50.056Z,49.75
2018-12-21T00:18:21.166Z,48.68
2018-12-21T00:18:52.272Z,48.70
2018-12-21T00:19:23.372Z,48.55
2018-12-21T00:19:54.484Z,50.33
2018-12-21T00:20:25.588Z,45.50
2018-12-21T00:20:56.728Z,46.83
2018-12-21T00:21:27.861Z,47.60
2018-12-21T00:21:58.974Z,46.50
2018-12-21T00:22:30.078Z,47.85
2018-12-21T00:23:01.229Z,49.05
2018-12-21T00:23:32.344Z,46.10
2018-12-21T00:24:03.450Z,48.35
2018-12-21T00:24:34.563Z,47.75
2018-12-21T00:25:05.678Z,48.15
2018-12-21T00:25:36.781Z,47.90
2018-12-21T00:26:07.893Z,47.25
2018-12-21T00:26:39.009Z,48.95
2018-12-21T00:27:10.138Z,49.00
2018-12-21T00:27:41.243Z,49.48
2018-12-21T00:28:12.447Z,50.25
2018-12-21T00:28:43.587Z,48.58
2018-12-21T00:29:14.684Z,48.40
2018-12-21T00:29:45.790Z,48.30
2018-12-21T00:30:16.957Z,49.90
2018-12-21T00:30:48.073Z,45.92
2018-12-21T00:31:19.245Z,47.03
2018-12-21T00:31:50.358Z,48.87
2018-12-21T00:32:21.505Z,47.40
2018-12-21T00:32:52.630Z,47.55
2018-12-21T00:33:23.788Z,50.40
2018-12-21T00:33:54.898Z,45.55
2018-12-21T00:34:26.012Z,48.55
2018-12-21T00:34:57.125Z,47.78
2018-12-21T00:35:28.253Z,48.60
2018-12-21T00:35:59.361Z,47.20
2018-12-21T00:36:30.503Z,47.85
2018-12-21T00:37:01.608Z,47.65
2018-12-21T00:37:32.800Z,45.52
2018-12-21T00:38:05.659Z,49.27
2018-12-21T00:38:37.013Z,46.90
2018-12-21T00:39:08.154Z,47.27
2018-12-21T00:39:39.278Z,49.30
2018-12-21T00:40:10.384Z,47.62
2018-12-21T00:40:41.497Z,49.58
2018-12-21T00:41:12.610Z,48.75
2018-12-21T00:41:43.756Z,50.20
2018-12-21T00:42:14.864Z,48.00
2018-12-21T00:42:46.093Z,49.00
2018-12-21T00:43:17.208Z,49.88
2018-12-21T00:43:48.322Z,49.95
2018-12-21T00:44:19.428Z,50.75
2018-12-21T00:44:50.787Z,49.95
2018-12-21T00:45:21.965Z,49.20
2018-12-21T00:45:53.072Z,49.70
2018-12-21T00:46:24.185Z,51.13
2018-12-21T00:46:55.336Z,48.48
2018-12-21T00:47:26.458Z,50.08
2018-12-21T00:47:57.598Z,48.92
2018-12-21T00:48:28.718Z,49.67
2018-12-21T00:48:59.824Z,48.38
2018-12-21T00:49:30.921Z,49.23
2018-12-21T00:50:02.048Z,49.63
2018-12-21T00:50:33.230Z,50.55
2018-12-21T00:51:04.328Z,49.95
2018-12-21T00:51:35.438Z,50.12
2018-12-21T00:52:06.540Z,49.25
2018-12-21T00:52:37.708Z,50.25
2018-12-21T00:53:08.842Z,50.28
2018-12-21T00:53:39.944Z,51.53
2018-12-21T00:54:11.064Z,51.40
2018-12-21T00:54:42.164Z,51.37
2018-12-21T00:55:13.260Z,49.50
2018-12-21T00:55:44.421Z,50.88
2018-12-21T00:56:15.528Z,49.13
2018-12-21T00:56:46.641Z,48.80
2018-12-21T00:57:17.745Z,50.43
2018-12-21T00:57:48.958Z,52.38
2018-12-21T00:58:20.071Z,49.13
2018-12-21T00:58:51.183Z,50.35
2018-12-21T00:59:22.295Z,51.50
2018-12-21T00:59:53.396Z,50.95
2018-12-21T01:00:24.505Z,50.88
2018-12-21T01:00:55.645Z,50.60
2018-12-21T01:01:26.788Z,51.48
2018-12-21T01:01:57.891Z,51.53
2018-12-21T01:02:28.995Z,50.83
2018-12-21T01:03:00.102Z,49.55
2018-12-21T01:03:31.210Z,50.15
2018-12-21T01:04:02.337Z,49.70
2018-12-21T01:04:33.441Z,47.93
2018-12-21T01:05:04.548Z,49.30
2018-12-21T01:05:35.660Z,49.30
2018-12-21T01:06:06.778Z,48.48
2018-12-21T01:06:37.913Z,49.20
2018-12-21T01:07:09.018Z,49.93
2018-12-21T01:07:40.119Z,49.38
2018-12-21T01:08:11.224Z,48.60
2018-12-21T01:08:42.325Z,50.40
2018-12-21T01:09:13.454Z,50.88
2018-12-21T01:09:44.568Z,50.03
2018-12-21T01:10:15.780Z,50.28
2018-12-21T01:10:46.903Z,49.85
2018-12-21T01:11:18.009Z,50.48
2018-12-21T01:11:49.116Z,48.85
2018-12-21T01:12:20.346Z,48.30
2018-12-21T01:12:51.467Z,49.93
2018-12-21T01:13:22.582Z,51.35
2018-12-21T01:13:53.700Z,48.92
2018-12-21T01:14:24.806Z,48.40
2018-12-21T01:14:55.925Z,51.40
2018-12-21T01:15:27.070Z,49.13
2018-12-21T01:15:58.171Z,49.58
2018-12-21T01:16:29.313Z,48.85
2018-12-21T01:17:00.419Z,50.85
2018-12-21T01:17:31.730Z,48.48
2018-12-21T01:18:02.844Z,47.78
2018-12-21T01:18:33.951Z,48.13
2018-12-21T01:19:05.060Z,47.38
2018-12-21T01:19:36.184Z,46.48
2018-12-21T01:20:07.379Z,47.05
2018-12-21T01:20:38.557Z,46.53
2018-12-21T01:21:09.745Z,47.55
2018-12-21T01:21:40.856Z,46.55
2018-12-21T01:22:12.016Z,48.48
2018-12-21T01:22:43.129Z,46.55
2018-12-21T01:23:14.260Z,47.70
2018-12-21T01:23:45.388Z,47.48
2018-12-21T01:24:16.493Z,49.50
2018-12-21T01:24:47.642Z,48.02
2018-12-21T01:25:18.796Z,47.65
2018-12-21T01:25:49.941Z,47.35
2018-12-21T01:26:21.064Z,47.70
2018-12-21T01:26:52.184Z,45.55
2018-12-21T01:27:23.313Z,47.53
2018-12-21T01:27:54.471Z,45.48
2018-12-21T01:28:25.570Z,45.35
2018-12-21T01:28:56.714Z,45.90
2018-12-21T01:29:27.881Z,47.20
2018-12-21T01:29:58.992Z,44.42
2018-12-21T01:30:30.096Z,45.48
2018-12-21T01:31:01.205Z,44.25
2018-12-21T01:31:32.355Z,45.00
2018-12-21T01:32:03.455Z,47.17
2018-12-21T01:32:34.560Z,45.65
2018-12-21T01:33:05.666Z,46.10
2018-12-21T01:33:36.781Z,44.30
2018-12-21T01:34:07.950Z,46.02
2018-12-21T01:34:39.069Z,45.45
2018-12-21T01:35:10.261Z,46.08
2018-12-21T01:35:41.376Z,45.15
2018-12-21T01:36:12.591Z,47.38
2018-12-21T01:36:43.717Z,47.38
2018-12-21T01:37:14.900Z,46.48
2018-12-21T01:37:46.004Z,48.17
2018-12-21T01:38:17.109Z,48.80
2018-12-21T01:38:48.208Z,47.17
2018-12-21T01:39:19.309Z,47.43
2018-12-21T01:39:50.444Z,49.40
2018-12-21T01:40:21.556Z,48.20
2018-12-21T01:40:52.655Z,48.05
2018-12-21T01:41:23.759Z,49.00
2018-12-21T01:41:54.869Z,47.80
2018-12-21T01:42:25.963Z,47.75
2018-12-21T01:42:57.079Z,47.55
2018-12-21T01:43:28.208Z,47.33
2018-12-21T01:43:59.299Z,48.35
2018-12-21T01:44:30.433Z,50.70
2018-12-21T01:45:01.527Z,48.08
2018-12-21T01:45:32.631Z,49.05
2018-12-21T01:46:03.735Z,47.10
2018-12-21T01:46:34.848Z,47.60
2018-12-21T01:47:05.948Z,49.50
2018-12-21T01:47:37.075Z,49.98
2018-12-21T01:48:08.172Z,49.67
2018-12-21T01:48:39.281Z,49.45
2018-12-21T01:49:10.440Z,47.85
2018-12-21T01:49:41.546Z,47.65
2018-12-21T01:50:12.656Z,47.90
2018-12-21T01:50:43.766Z,49.38
2018-12-21T01:51:14.999Z,47.53
2018-12-21T01:51:47.162Z,48.87
2018-12-21T01:52:18.689Z,50.40
2018-12-21T01:52:49.806Z,50.40
2018-12-21T01:53:20.918Z,50.98
2018-12-21T01:53:52.029Z,48.50
2018-12-21T01:54:23.139Z,48.15
2018-12-21T01:54:54.257Z,49.27
2018-12-21T01:55:25.394Z,48.90
2018-12-21T01:55:56.509Z,47.53
2018-12-21T01:56:27.613Z,47.43
2018-12-21T01:56:58.779Z,46.80
2018-12-21T01:57:29.902Z,47.30
2018-12-21T01:58:01.047Z,46.73
2018-12-21T01:58:32.143Z,48.92
2018-12-21T01:59:03.285Z,48.98
2018-12-21T01:59:34.393Z,48.33
2018-12-21T02:00:05.504Z,47.35
2018-12-21T02:00:36.621Z,48.20
2018-12-21T02:01:07.721Z,47.48
2018-12-21T02:01:38.826Z,46.80
2018-12-21T02:02:09.971Z,47.98
2018-12-21T02:02:41.075Z,45.05
2018-12-21T02:03:12.180Z,45.55
2018-12-21T02:03:43.281Z,46.45
2018-12-21T02:04:14.414Z,46.28
2018-12-21T02:04:45.538Z,46.08
2018-12-21T02:05:16.642Z,46.73
2018-12-21T02:05:47.750Z,46.68
2018-12-21T02:06:18.853Z,46.08
2018-12-21T02:06:49.996Z,45.40
2018-12-21T02:07:21.108Z,46.68
2018-12-21T02:07:52.212Z,45.30
2018-12-21T02:08:23.317Z,46.00
2018-12-21T02:08:54.456Z,47.33
2018-12-21T02:09:25.560Z,46.28
2018-12-21T02:09:56.670Z,46.23
2018-12-21T02:10:27.774Z,46.90
2018-12-21T02:10:58.913Z,45.75
2018-12-21T02:11:30.044Z,45.80
2018-12-21T02:12:01.149Z,45.55
2018-12-21T02:12:32.284Z,44.93
2018-12-21T02:13:03.428Z,45.35
2018-12-21T02:13:34.624Z,44.50
2018-12-21T02:14:05.726Z,46.92
2018-12-21T02:14:36.837Z,45.70
2018-12-21T02:15:07.941Z,46.92
2018-12-21T02:15:39.083Z,48.90
2018-12-21T02:16:10.185Z,47.33
2018-12-21T02:16:41.325Z,47.15
2018-12-21T02:17:12.429Z,47.98
2018-12-21T02:17:43.539Z,44.30
2018-12-21T02:18:14.669Z,44.33
2018-12-21T02:18:45.780Z,47.62
2018-12-21T02:19:16.902Z,45.98
2018-12-21T02:19:48.046Z,48.13
2018-12-21T02:20:19.154Z,47.03
2018-12-21T02:20:50.253Z,47.03
2018-12-21T02:21:21.396Z,52.65
2018-12-21T02:21:55.982Z,48.92
2018-12-21T02:22:25.668Z,48.23
2018-12-21T02:22:56.770Z,46.48
2018-12-21T02:23:27.876Z,47.10
2018-12-21T02:23:58.988Z,47.93
2018-12-21T02:24:30.094Z,46.63
2018-12-21T02:25:01.203Z,46.98
2018-12-21T02:25:32.346Z,49.70
2018-12-21T02:26:03.506Z,46.35
2018-12-21T02:26:34.708Z,47.78
2018-12-21T02:27:05.825Z,47.23
2018-12-21T02:27:36.927Z,46.02
2018-12-21T02:28:08.032Z,46.35
2018-12-21T02:28:39.163Z,46.92
2018-12-21T02:29:10.279Z,46.92
2018-12-21T02:29:41.382Z,46.70
2018-12-21T02:30:12.493Z,45.48
2018-12-21T02:30:43.603Z,45.05
2018-12-21T02:31:14.722Z,45.12
2018-12-21T02:31:45.854Z,45.23
2018-12-21T02:32:16.984Z,44.40
2018-12-21T02:32:48.214Z,43.55
2018-12-21T02:33:19.353Z,45.52
2018-12-21T02:33:50.474Z,46.18
2018-12-21T02:34:21.633Z,44.38
2018-12-21T02:34:52.757Z,46.28
2018-12-21T02:35:23.864Z,45.00
2018-12-21T02:35:54.969Z,44.38
2018-12-21T02:36:26.090Z,45.50
2018-12-21T02:36:57.205Z,45.05
2018-12-21T02:37:28.328Z,46.68
2018-12-21T02:37:59.437Z,46.70
2018-12-21T02:38:30.580Z,46.65
2018-12-21T02:39:01.695Z,45.63
2018-12-21T02:39:32.829Z,45.88
2018-12-21T02:40:03.988Z,46.18
2018-12-21T02:40:35.114Z,46.05
2018-12-21T02:41:06.301Z,46.63
2018-12-21T02:41:38.376Z,46.42
2018-12-21T02:42:09.526Z,46.23
2018-12-21T02:42:40.762Z,47.17
2018-12-21T02:43:11.882Z,45.43
2018-12-21T02:43:42.993Z,45.43
2018-12-21T02:44:14.099Z,45.17
2018-12-21T02:44:45.258Z,46.10
2018-12-21T02:45:17.557Z,44.77
2018-12-21T02:45:48.675Z,43.87
2018-12-21T02:46:19.789Z,43.23
2018-12-21T02:46:50.899Z,44.63
2018-12-21T02:47:22.014Z,45.73
2018-12-21T02:47:53.126Z,45.65
2018-12-21T02:48:24.234Z,45.05
2018-12-21T02:48:55.348Z,44.77
2018-12-21T02:49:26.472Z,45.50
2018-12-21T02:49:57.597Z,44.45
2018-12-21T02:50:28.744Z,45.50
2018-12-21T02:50:59.904Z,45.08
2018-12-21T02:51:31.003Z,46.55
2018-12-21T02:52:05.696Z,47.17
2018-12-21T02:52:35.299Z,46.10
2018-12-21T02:53:06.417Z,45.25
2018-12-21T02:53:37.529Z,46.33
2018-12-21T02:54:08.643Z,46.15
2018-12-21T02:54:39.776Z,46.00
2018-12-21T02:55:10.991Z,46.77
2018-12-21T02:55:42.149Z,46.95
2018-12-21T02:56:13.259Z,45.40
2018-12-21T02:56:44.368Z,48.13
2018-12-21T02:57:15.497Z,45.78
2018-12-21T02:57:46.606Z,46.48
2018-12-21T02:58:17.721Z,45.88
2018-12-21T02:58:48.836Z,46.33
2018-12-21T02:59:19.955Z,45.35
2018-12-21T02:59:51.075Z,47.17
2018-12-21T03:00:22.240Z,45.98
2018-12-21T03:00:53.356Z,46.53
2018-12-21T03:01:24.462Z,44.75
2018-12-21T03:01:55.587Z,46.08
2018-12-21T03:02:26.693Z,45.50
2018-12-21T03:02:57.804Z,45.38
2018-12-21T03:03:28.911Z,45.55
2018-12-21T03:04:00.017Z,44.70
2018-12-21T03:04:31.134Z,47.65
2018-12-21T03:05:02.244Z,48.65
2018-12-21T03:05:33.378Z,49.30
2018-12-21T03:06:04.489Z,45.90
2018-12-21T03:06:35.614Z,45.95
2018-12-21T03:07:06.734Z,45.43
2018-12-21T03:07:37.852Z,45.23
2018-12-21T03:08:08.972Z,43.20
2018-12-21T03:08:40.086Z,42.60
2018-12-21T03:09:11.210Z,43.98
2018-12-21T03:09:42.341Z,43.28
2018-12-21T03:10:13.464Z,43.13
2018-12-21T03:10:44.602Z,44.08
2018-12-21T03:11:54.341Z,42.60
2018-12-21T03:12:25.454Z,43.75
2018-12-21T03:12:56.572Z,43.20
2018-12-21T03:13:27.695Z,43.28
2018-12-21T03:13:58.848Z,43.63
2018-12-21T03:14:29.960Z,44.20
2018-12-21T03:15:01.067Z,44.48
2018-12-21T03:15:32.209Z,45.65
2018-12-21T03:16:03.324Z,45.30
2018-12-21T03:16:34.447Z,45.63
2018-12-21T03:17:05.559Z,45.15
2018-12-21T03:17:36.674Z,47.98
2018-12-21T03:18:07.782Z,45.63
2018-12-21T03:18:38.902Z,46.20
2018-12-21T03:19:10.009Z,45.43
2018-12-21T03:19:41.128Z,44.98
2018-12-21T03:20:12.256Z,44.93
2018-12-21T03:20:43.410Z,44.85
2018-12-21T03:21:14.512Z,45.55
2018-12-21T03:21:45.683Z,45.80
2018-12-21T03:22:16.786Z,45.65
2018-12-21T03:22:47.914Z,45.03
2018-12-21T03:23:19.029Z,46.85
2018-12-21T03:23:50.271Z,47.48
2018-12-21T03:24:21.390Z,47.58
2018-12-21T03:24:52.564Z,45.38
2018-12-21T03:25:23.686Z,46.37
2018-12-21T03:25:54.820Z,46.53
2018-12-21T03:26:25.991Z,47.10
2018-12-21T03:26:57.147Z,47.03
2018-12-21T03:27:28.356Z,45.63
2018-12-21T03:27:59.468Z,47.43
2018-12-21T03:28:30.645Z,46.88
2018-12-21T03:29:01.751Z,47.98
2018-12-21T03:29:32.944Z,45.40
2018-12-21T03:30:04.210Z,47.17
2018-12-21T03:30:35.301Z,46.65
2018-12-21T03:31:06.410Z,44.98
2018-12-21T03:31:37.566Z,45.55
2018-12-21T03:32:08.680Z,46.20
2018-12-21T03:32:39.796Z,45.85
2018-12-21T03:33:10.897Z,47.25
2018-12-21T03:33:42.019Z,45.65
2018-12-21T03:34:13.150Z,47.00
2018-12-21T03:34:44.294Z,44.67
2018-12-21T03:35:15.421Z,45.00
2018-12-21T03:35:46.544Z,46.80
2018-12-21T03:36:17.661Z,47.30
2018-12-21T03:36:48.780Z,46.00
2018-12-21T03:37:19.937Z,47.58
2018-12-21T03:37:51.087Z,47.08
2018-12-21T03:38:22.193Z,48.08
2018-12-21T03:38:53.332Z,47.45
2018-12-21T03:39:24.429Z,47.25
2018-12-21T03:39:55.542Z,49.25
2018-12-21T03:40:26.645Z,47.67
2018-12-21T03:40:57.752Z,49.08
2018-12-21T03:41:28.868Z,45.75
2018-12-21T03:42:00.015Z,48.73
2018-12-21T03:42:31.129Z,48.63
2018-12-21T03:43:02.284Z,47.33
2018-12-21T03:43:33.397Z,47.95
2018-12-21T03:44:04.539Z,46.18
2018-12-21T03:44:35.656Z,49.03
2018-12-21T03:45:06.808Z,47.13
2018-12-21T03:45:37.933Z,47.17
2018-12-21T03:46:09.038Z,49.00
2018-12-21T03:46:40.153Z,47.27
2018-12-21T03:47:11.261Z,49.38
2018-12-21T03:47:42.433Z,50.00
2018-12-21T03:48:13.536Z,49.67
2018-12-21T03:48:44.683Z,49.18
2018-12-21T03:49:15.834Z,49.80
2018-12-21T03:49:50.083Z,49.38
2018-12-21T03:50:21.190Z,46.83
2018-12-21T03:50:52.299Z,49.30
2018-12-21T03:51:23.408Z,50.30
2018-12-21T03:51:54.531Z,49.45
2018-12-21T03:52:25.674Z,50.63
2018-12-21T03:52:56.780Z,50.40
2018-12-21T03:53:27.883Z,50.08
2018-12-21T03:53:59.005Z,50.12
2018-12-21T03:54:30.119Z,50.17
2018-12-21T03:55:01.224Z,50.10
2018-12-21T03:55:32.361Z,49.58
2018-12-21T03:56:03.465Z,50.75
2018-12-21T03:56:34.603Z,51.48
2018-12-21T03:57:05.722Z,52.53
2018-12-21T03:57:36.837Z,51.92
2018-12-21T03:58:07.945Z,50.83
2018-12-21T03:58:39.094Z,51.58
2018-12-21T03:59:11.178Z,52.27
2018-12-21T03:59:43.335Z,50.15
2018-12-21T04:00:14.486Z,51.02
2018-12-21T04:00:45.664Z,49.48
2018-12-21T04:01:16.782Z,49.30
2018-12-21T04:01:47.897Z,50.28
2018-12-21T04:02:20.895Z,48.23
2018-12-21T04:02:52.340Z,51.00
2018-12-21T04:03:23.446Z,49.30
2018-12-21T04:03:54.600Z,50.48
2018-12-21T04:04:25.707Z,50.63
2018-12-21T04:04:56.818Z,51.75
2018-12-21T04:05:27.941Z,51.10
2018-12-21T04:05:59.050Z,52.67
2018-12-21T04:06:30.161Z,51.70
2018-12-21T04:07:01.288Z,53.95
2018-12-21T04:07:32.399Z,52.75
2018-12-21T04:08:03.502Z,53.58
2018-12-21T04:08:34.641Z,51.20
2018-12-21T04:09:05.969Z,54.60
2018-12-21T04:09:37.089Z,53.85
2018-12-21T04:10:08.209Z,52.03
2018-12-21T04:10:39.325Z,54.65
2018-12-21T04:11:10.446Z,51.95
2018-12-21T04:11:41.578Z,51.73
2018-12-21T04:12:12.810Z,51.23
2018-12-21T04:12:43.938Z,53.98
2018-12-21T04:13:15.049Z,52.03
2018-12-21T04:13:46.176Z,51.80
2018-12-21T04:14:17.342Z,52.50
2018-12-21T04:14:48.457Z,53.50
2018-12-21T04:15:19.590Z,50.85
2018-12-21T04:15:50.701Z,52.10
2018-12-21T04:16:21.839Z,52.75
2018-12-21T04:16:52.960Z,55.17
2018-12-21T04:17:24.068Z,54.23
2018-12-21T04:17:55.191Z,53.15
2018-12-21T04:18:26.344Z,52.75
2018-12-21T04:18:57.472Z,54.40
2018-12-21T04:19:28.612Z,52.50
2018-12-21T04:19:59.722Z,52.53
2018-12-21T04:20:30.886Z,53.52
2018-12-21T04:21:02.109Z,53.25
2018-12-21T04:21:33.259Z,52.98
2018-12-21T04:22:04.366Z,53.38
2018-12-21T04:22:35.477Z,53.52
2018-12-21T04:23:06.578Z,52.27
2018-12-21T04:23:37.695Z,53.70
2018-12-21T04:24:08.807Z,53.42
2018-12-21T04:24:39.911Z,53.95
2018-12-21T04:25:11.025Z,53.35
2018-12-21T04:25:42.185Z,52.53
2018-12-21T04:26:13.298Z,52.25
2018-12-21T04:26:44.416Z,54.03
2018-12-21T04:27:15.529Z,53.78
2018-12-21T04:27:46.648Z,53.52
2018-12-21T04:28:17.817Z,54.15
2018-12-21T04:28:48.920Z,53.13
2018-12-21T04:29:20.041Z,52.78
2018-12-21T04:29:51.159Z,51.10
2018-12-21T04:30:22.266Z,54.00
2018-12-21T04:30:54.549Z,52.10
2018-12-21T04:31:25.692Z,52.23
2018-12-21T04:31:56.828Z,52.43
2018-12-21T04:32:27.935Z,52.95
2018-12-21T04:32:59.044Z,53.98
2018-12-21T04:33:30.164Z,55.55
2018-12-21T04:34:01.283Z,55.80
2018-12-21T04:34:32.409Z,55.05
2018-12-21T04:35:03.544Z,54.35
2018-12-21T04:35:34.814Z,55.95
2018-12-21T04:36:05.975Z,55.35
2018-12-21T04:36:37.216Z,54.48
2018-12-21T04:37:08.332Z,54.40
2018-12-21T04:37:39.476Z,55.12
2018-12-21T04:38:10.579Z,54.80
2018-12-21T04:38:41.722Z,54.45
2018-12-21T04:39:12.933Z,57.53
2018-12-21T04:39:44.041Z,54.73
2018-12-21T04:40:15.720Z,57.00
2018-12-21T04:40:46.913Z,54.67
2018-12-21T04:41:18.074Z,56.45
2018-12-21T04:41:49.257Z,54.67
2018-12-21T04:42:20.393Z,55.58
2018-12-21T04:42:51.534Z,55.98
2018-12-21T04:43:22.633Z,53.30
2018-12-21T04:43:53.736Z,54.20
2018-12-21T04:44:24.873Z,53.60
2018-12-21T04:44:56.154Z,53.02
2018-12-21T04:45:27.355Z,53.68
2018-12-21T04:45:58.519Z,52.05
2018-12-21T04:46:29.623Z,53.17
2018-12-21T04:47:00.726Z,52.55
2018-12-21T04:47:31.883Z,54.95
2018-12-21T04:48:02.993Z,54.08
2018-12-21T04:48:36.158Z,54.45
2018-12-21T04:49:07.275Z,54.67
2018-12-21T04:49:38.397Z,54.63
2018-12-21T04:50:09.509Z,54.55
2018-12-21T04:50:40.666Z,52.30
2018-12-21T04:51:11.772Z,55.35
2018-12-21T04:51:42.880Z,53.83
2018-12-21T04:52:13.988Z,56.85
2018-12-21T04:52:45.087Z,57.08
2018-12-21T04:53:16.773Z,55.50
2018-12-21T04:53:48.664Z,56.33
2018-12-21T04:54:19.778Z,55.38
2018-12-21T04:54:50.902Z,55.67
2018-12-21T04:55:22.045Z,57.45
2018-12-21T04:55:53.144Z,56.85
2018-12-21T04:56:24.256Z,57.60
2018-12-21T04:56:55.371Z,54.65
2018-12-21T04:57:26.530Z,55.12
2018-12-21T04:57:57.648Z,53.92
2018-12-21T04:58:28.762Z,53.28
2018-12-21T04:58:59.870Z,52.62
2018-12-21T04:59:30.990Z,54.90
2018-12-21T05:00:02.231Z,56.68
2018-12-21T05:00:34.897Z,56.00
2018-12-21T05:01:06.011Z,58.30
2018-12-21T05:01:37.157Z,56.53
2018-12-21T05:02:08.333Z,58.75
2018-12-21T05:02:39.443Z,59.98
2018-12-21T05:03:10.575Z,59.15
2018-12-21T05:03:41.700Z,59.50
2018-12-21T05:04:19.700Z,58.50
2018-12-21T05:04:45.955Z,59.38
2018-12-21T05:05:17.076Z,59.70
2018-12-21T05:05:48.212Z,57.65
2018-12-21T05:06:19.338Z,58.90
2018-12-21T05:06:50.547Z,59.90
2018-12-21T05:07:21.692Z,59.00
2018-12-21T05:07:52.852Z,58.40
2018-12-21T05:08:23.966Z,59.55
2018-12-21T05:08:55.074Z,60.85
2018-12-21T05:09:26.183Z,61.02
2018-12-21T05:09:57.288Z,57.45
2018-12-21T05:10:28.394Z,61.30
2018-12-21T05:10:59.504Z,61.02
2018-12-21T05:11:30.613Z,58.28
2018-12-21T05:12:01.763Z,60.17
2018-12-21T05:12:32.868Z,59.65
2018-12-21T05:13:03.974Z,60.23
2018-12-21T05:13:35.077Z,60.03
2018-12-21T05:14:07.897Z,62.27
2018-12-21T05:14:39.351Z,60.17
2018-12-21T05:15:10.462Z,60.20
2018-12-21T05:15:41.567Z,63.73
2018-12-21T05:16:12.691Z,61.28
2018-12-21T05:16:43.799Z,58.92
2018-12-21T05:17:14.972Z,61.05
2018-12-21T05:17:46.072Z,60.85
2018-12-21T05:18:17.211Z,60.08
2018-12-21T05:18:48.348Z,62.00
2018-12-21T05:19:19.460Z,61.65
2018-12-21T05:19:50.714Z,59.18
2018-12-21T05:20:21.833Z,60.58
2018-12-21T05:20:52.953Z,58.70
2018-12-21T05:21:24.061Z,56.77
2018-12-21T05:21:55.183Z,58.13
2018-12-21T05:22:26.786Z,58.48
2018-12-21T05:22:57.945Z,60.45
2018-12-21T05:23:29.052Z,59.95
2018-12-21T05:24:00.174Z,58.70
2018-12-21T05:24:31.289Z,58.15
2018-12-21T05:25:02.387Z,61.75
2018-12-21T05:25:33.493Z,61.48
2018-12-21T05:26:04.673Z,60.63
2018-12-21T05:26:35.808Z,59.63
2018-12-21T05:27:06.921Z,63.78
2018-12-21T05:27:38.033Z,62.43
2018-12-21T05:28:09.142Z,60.80
2018-12-21T05:28:40.249Z,61.77
2018-12-21T05:29:11.377Z,62.30
2018-12-21T05:29:43.980Z,61.92
2018-12-21T05:30:15.188Z,62.20
2018-12-21T05:30:46.349Z,62.00
2018-12-21T05:31:17.481Z,59.85
2018-12-21T05:31:48.617Z,60.78
2018-12-21T05:32:19.767Z,59.80
2018-12-21T05:32:50.893Z,61.00
2018-12-21T05:33:22.003Z,62.27
2018-12-21T05:33:53.112Z,60.28
2018-12-21T05:34:24.221Z,60.60
2018-12-21T05:34:55.329Z,63.48
2018-12-21T05:35:26.481Z,62.83
2018-12-21T05:35:57.618Z,62.53
2018-12-21T05:36:28.733Z,62.23
2018-12-21T05:36:59.832Z,60.38
2018-12-21T05:37:30.943Z,59.27
2018-12-21T05:38:02.062Z,58.23
2018-12-21T05:38:33.178Z,60.63
2018-12-21T05:39:06.167Z,60.95
2018-12-21T05:39:37.321Z,62.43
2018-12-21T05:40:08.457Z,63.58
2018-12-21T05:40:40.914Z,62.90
2018-12-21T05:41:12.052Z,63.25
2018-12-21T05:41:43.162Z,64.27
2018-12-21T05:42:14.263Z,64.58
2018-12-21T05:42:45.386Z,61.85
2018-12-21T05:43:16.497Z,63.02
2018-12-21T05:43:47.636Z,61.83
2018-12-21T05:44:18.772Z,63.48
2018-12-21T05:44:50.016Z,60.58
2018-12-21T05:45:21.134Z,63.90
2018-12-21T05:45:52.258Z,64.03
2018-12-21T05:46:23.461Z,61.68
2018-12-21T05:46:56.375Z,61.90
2018-12-21T05:47:27.558Z,59.63
2018-12-21T05:47:58.673Z,62.25
2018-12-21T05:48:29.792Z,63.08
2018-12-21T05:49:00.893Z,63.73
2018-12-21T05:49:32.010Z,63.02
2018-12-21T05:50:03.134Z,64.82
2018-12-21T05:50:34.253Z,64.03
2018-12-21T05:51:05.380Z,63.50
2018-12-21T05:51:36.534Z,64.58
2018-12-21T05:52:07.648Z,64.15
2018-12-21T05:52:38.801Z,66.85
2018-12-21T05:53:10.607Z,62.45
2018-12-21T05:53:41.715Z,61.58
2018-12-21T05:54:13.978Z,60.85
2018-12-21T05:54:45.076Z,63.02
2018-12-21T05:55:16.183Z,63.50
2018-12-21T05:55:47.316Z,62.65
2018-12-21T05:56:18.423Z,63.78
2018-12-21T05:56:49.549Z,62.33
2018-12-21T05:57:20.648Z,61.90
2018-12-21T05:57:52.686Z,59.83
2018-12-21T05:58:23.838Z,61.10
2018-12-21T05:58:54.955Z,62.40
2018-12-21T05:59:26.072Z,63.25
2018-12-21T05:59:57.203Z,63.80
2018-12-21T06:00:28.329Z,64.15
2018-12-21T06:00:59.441Z,64.80
2018-12-21T06:01:30.562Z,63.98
2018-12-21T06:02:01.716Z,62.83
2018-12-21T06:02:32.820Z,64.58
2018-12-21T06:03:06.495Z,65.15
2018-12-21T06:03:44.922Z,68.22
2018-12-21T06:04:18.245Z,66.02
2018-12-21T06:04:49.411Z,63.63
2018-12-21T06:05:20.578Z,69.03
2018-12-21T06:05:51.788Z,70.03
2018-12-21T06:06:22.928Z,65.97
2018-12-21T06:06:54.044Z,67.17
2018-12-21T06:07:25.152Z,69.07
2018-12-21T06:07:56.999Z,66.67
2018-12-21T06:08:28.530Z,65.42
2018-12-21T06:08:59.833Z,62.38
2018-12-21T06:09:31.013Z,66.15
2018-12-21T06:10:02.145Z,65.87
2018-12-21T06:10:33.333Z,67.67
2018-12-21T06:11:04.452Z,68.90
2018-12-21T06:11:35.560Z,68.47
2018-12-21T06:12:06.679Z,65.62
2018-12-21T06:12:37.833Z,68.92
2018-12-21T06:13:08.986Z,66.90
2018-12-21T06:13:40.193Z,67.85
2018-12-21T06:14:11.316Z,67.08
2018-12-21T06:14:42.459Z,68.17
2018-12-21T06:15:13.560Z,66.45
2018-12-21T06:15:44.670Z,66.62
2018-12-21T06:16:15.809Z,64.85
2018-12-21T06:16:46.929Z,65.67
2018-12-21T06:17:18.035Z,65.97
2018-12-21T06:17:49.164Z,65.92
2018-12-21T06:18:20.289Z,66.65
2018-12-21T06:18:51.419Z,66.70
2018-12-21T06:19:22.523Z,68.90
2018-12-21T06:19:53.677Z,68.83
2018-12-21T06:20:24.781Z,66.57
2018-12-21T06:20:55.888Z,66.67
2018-12-21T06:21:27.001Z,67.00
2018-12-21T06:21:58.097Z,62.23
2018-12-21T06:22:29.216Z,62.67
2018-12-21T06:23:00.325Z,62.67
2018-12-21T06:23:31.438Z,67.00
2018-12-21T06:24:02.550Z,65.37
2018-12-21T06:24:33.691Z,65.42
2018-12-21T06:25:05.481Z,65.28
2018-12-21T06:25:36.588Z,67.95
2018-12-21T06:26:07.694Z,64.97
2018-12-21T06:26:40.683Z,64.15
2018-12-21T06:27:12.015Z,64.32
2018-12-21T06:27:43.138Z,65.10
2018-12-21T06:28:14.250Z,65.50
2018-12-21T06:28:45.363Z,65.05
2018-12-21T06:29:16.507Z,65.05
2018-12-21T06:29:47.648Z,63.13
2018-12-21T06:30:18.753Z,66.30
2018-12-21T06:30:49.862Z,66.05
2018-12-21T06:31:21.002Z,63.25
2018-12-21T06:31:52.152Z,65.22
2018-12-21T06:32:23.302Z,64.65
2018-12-21T06:32:54.409Z,64.53
2018-12-21T06:33:25.540Z,66.17
2018-12-21T06:33:56.672Z,66.57
2018-12-21T06:34:27.777Z,67.92
2018-12-21T06:34:58.906Z,66.80
2018-12-21T06:35:30.057Z,65.60
2018-12-21T06:36:01.163Z,70.20
2018-12-21T06:36:32.291Z,68.00
2018-12-21T06:37:03.401Z,68.42
2018-12-21T06:37:34.564Z,70.22
2018-12-21T06:38:05.736Z,69.27
2018-12-21T06:38:36.867Z,67.40
2018-12-21T06:39:07.995Z,64.50
2018-12-21T06:39:39.148Z,66.15
2018-12-21T06:40:10.875Z,64.97
2018-12-21T06:40:42.116Z,67.03
2018-12-21T06:41:13.258Z,70.87
2018-12-21T06:41:44.365Z,70.42
2018-12-21T06:42:15.494Z,68.00